Archival Weather

Phoenix Sky Harbor Intl

Phoenix, Arizona (KPHX)

Report from: Thursday, December 7, 2023 7:51 AM MST
Current time: Thursday, July 18, 2024 8:21 PM MST

Current weather – Weather history – Daily summaries
Weather forecast

Temperature12.2°C (54.0°F)
Dew point2.2°C (36.0°F)
Winds 9 kts (4.6 m/s, 10.4 mph) East (90°)
Visibility10 mi. (16.1 km)
Clouds Few clouds 11,000 ft. (3,353 m)
Few clouds 18,000 ft. (5,486 m)
Scattered clouds 25,000 ft. (7,620 m)
Altimeter29.99 in.Hg (1016 mB)
Relative humidity50 %
Density altitude-278 ft. (-85 m)
Sea-level pressure101.5 kPa (1015 mB, 29.97 in.Hg)
Remarks Automated weather observing station with precipitation discriminator
Pressure rising more quickly
Flight conditions Visual Meteorological Conditions
Raw dataKPHX 071451Z 09009KT 10SM FEW110 FEW180 SCT250 12/02 A2999 RMK AO2 SLP148 T01220022 53006
An error has occurred. This application may no longer respond until reloaded. Reload 🗙